• Join FlightAware (Why Join?)
  • Login
  • US Flag 
Rudolph Flight #1: Arrived! 
08:24AM EST


 

Airport Tracker/Info


-or-


 

Live Flight TrackerFlight Track Log ✈ EJM90 ✈ 23-Jun-2013 ✈ KORL - KAVL

Flight Track Log - Related Links

Times and Time Zones

All times are in EDT time to prevent confusion due to time zone crossing. See the EJM90 flight status page for this flight to view local times or setup timezone preferences in your user account.

Time Position Orientation Groundspeed Altitude Reporting Facility
EDT Latitude Longitude Course Direction KTS MPH feet Rate Location/Type
08:45AM 28.5500 -81.3167 319° Northwest 159 183 800  Level Orlando TRACON
08:47AM 28.6000 -81.2500 49° Northeast 228 262 1,500 480 Climbing Orlando TRACON
08:48AM 28.6667 -81.2500 360° North 217 250 2,000 1,020 Climbing Orlando TRACON
08:49AM 28.7333 -81.2500 360° North 237 273 3,700 1,740 Climbing Orlando TRACON
08:50AM 28.8000 -81.2833 336° Northwest 279 321 5,500 2,880 Climbing Orlando TRACON
08:51AM 29.2053 -81.3887 319° Northwest  Level FlightAware Approximate
08:51AM 28.8667 -81.3167 336° Northwest 299 344 9,200  Level Orlando TRACON
08:51AM 28.9358 -81.3506 337° Northwest 331 381 12,200 3,660 Climbing Jacksonville Center
08:52AM 29.0217 -81.3847 341° North 340 391 15,800 3,180 Climbing Jacksonville Center
08:53AM 29.1158 -81.3928 356° North 334 384 18,600 2,700 Climbing Jacksonville Center
08:54AM 29.2119 -81.4056 353° North 348 400 21,300 2,640 Climbing Jacksonville Center
08:55AM 29.3164 -81.4136 356° North 365 420 23,900 2,400 Climbing Jacksonville Center
08:56AM 29.4250 -81.4214 356° North 379 436 26,100 2,040 Climbing Jacksonville Center
08:58AM 29.6300 -81.4422 355° North 386 444 30,100 1,920 Climbing Jacksonville Center
08:59AM 29.7447 -81.4550 354° North 397 457 31,900 1,440 Climbing Jacksonville Center
09:00AM 29.8558 -81.4939 343° North 403 464 33,000 540 Climbing Jacksonville Center
09:01AM 29.9775 -81.5425 341° North 430 495 33,000 120 Level Jacksonville Center
09:02AM 30.0969 -81.5914 341° North 444 511 33,300 1,680 Climbing Jacksonville Center
09:03AM 30.2122 -81.6356 342° North 450 518 36,400 2,640 Climbing Jacksonville Center
09:04AM 30.3275 -81.6606 349° North 437 503 38,600 1,800 Climbing Jacksonville Center
09:05AM 30.4467 -81.6781 353° North 425 489 40,000 1,200 Climbing Jacksonville Center
09:06AM 30.5594 -81.6961 352° North 425 489 41,100 960 Climbing Jacksonville Center
09:07AM 30.6892 -81.7136 353° North 420 483 42,000 840 Climbing Jacksonville Center
09:08AM 30.8019 -81.7317 352° North 420 483 42,800 120 Climbing Jacksonville Center
09:14AM 31.4280 -81.8210 352° North 465 535 43,000  Climbing FlightAware
09:14AM 31.4950 -81.8300 353° North 465 535 43,000  Level FlightAware
09:15AM 31.5680 -81.8410 353° North 465 535 43,000  Level FlightAware
09:16AM 31.6870 -81.8590 353° North 465 535 43,000  Level FlightAware
09:16AM 31.7740 -81.8710 353° North 465 535 43,000  Level FlightAware
09:17AM 31.8760 -81.8870 352° North 463 533 43,000  Level FlightAware
09:18AM 32.0070 -81.9070 353° North 465 535 43,000  Level FlightAware
09:19AM 32.1230 -81.9240 353° North 465 535 43,000  Level FlightAware
09:20AM 32.1390 -81.9260 354° North 468 539 43,000 -60 Level FlightAware
09:21AM 32.3650 -81.9590 353° North 465 535 42,900 -420 Descending FlightAware
09:21AM 32.4510 -81.9720 353° North 464 534 42,400 -960 Descending FlightAware
09:22AM 32.5450 -81.9860 353° North 463 533 41,600 -1,080 Descending FlightAware
09:23AM 32.6420 -82.0010 353° North 462 532 40,800 -1,080 Descending FlightAware
09:23AM 32.7270 -82.0130 353° North 458 527 40,100 -1,080 Descending FlightAware
09:24AM 32.8120 -82.0260 353° North 452 520 39,400 -1,080 Descending FlightAware
09:25AM 32.8720 -82.0350 353° North 452 520 38,900 -1,140 Descending FlightAware
09:25AM 32.9620 -82.0490 353° North 457 526 38,100 -1,080 Descending FlightAware
09:26AM 33.0510 -82.0620 353° North 460 529 37,400 -1,080 Descending FlightAware
09:27AM 33.1350 -82.0750 353° North 464 534 36,700 -1,080 Descending FlightAware
09:27AM 33.2180 -82.0880 353° North 467 537 36,000 -1,080 Descending FlightAware
09:28AM 33.3350 -82.1060 353° North 472 543 35,000 -1,080 Descending FlightAware
09:29AM 33.4230 -82.1190 353° North 471 542 34,300 -1,080 Descending FlightAware
09:30AM 33.5120 -82.1330 353° North 474 545 33,600 -1,140 Descending FlightAware
09:30AM 33.6000 -82.1460 353° North 481 554 32,800 -1,500 Descending FlightAware
09:31AM 33.6990 -82.1610 353° North 482 555 31,600 -1,920 Descending FlightAware
09:32AM 33.7880 -82.1790 350° North 479 551 30,100 -2,340 Descending FlightAware
09:32AM 33.8850 -82.2010 349° North 477 549 28,300 -2,520 Descending FlightAware
09:33AM 33.9510 -82.2150 350° North 475 547 27,000 -2,520 Descending FlightAware
09:34AM 34.0260 -82.2310 350° North 484 557 25,600 -2,400 Descending FlightAware
09:34AM 34.1020 -82.2480 350° North 488 562 24,200 -2,220 Descending FlightAware
09:35AM 34.2040 -82.2700 350° North 493 567 22,700 -1,860 Descending FlightAware
09:36AM 34.3380 -82.2990 350° North 481 554 21,000 -1,560 Descending FlightAware
09:36AM 34.4100 -82.3150 350° North 473 544 20,300 -1,320 Descending FlightAware
09:37AM 34.5000 -82.3350 350° North 475 547 19,400 -1,260 Descending FlightAware
09:38AM 34.6020 -82.3570 350° North 461 531 18,400 -1,560 Descending FlightAware
09:39AM 34.6800 -82.3750 349° North 442 509 17,200 -2,280 Descending FlightAware
09:40AM 34.7400 -82.3880 350° North 435 501 14,900 -2,280 Descending FlightAware
09:40AM 34.8830 -82.4190 350° North 384 442 13,300 -2,100 Descending FlightAware
09:41AM 34.9560 -82.4390 347° North 376 433 11,900 -1,920 Descending FlightAware
09:42AM 35.0140 -82.4710 336° Northwest 342 394 10,700 -1,860 Descending FlightAware
09:42AM 35.0390 -82.4800 344° North 332 382 10,200 -1,620 Descending FlightAware
09:42AM 35.0700 -82.4850 352° North 321 369 9,700 -660 Descending FlightAware
09:43AM 35.1010 -82.4900 352° North 321 369 9,700 -1,800 Level FlightAware
09:43AM 35.1340 -82.4680 29° Northeast 297 342 8,400 -2,460 Descending FlightAware
09:43AM 35.1700 -82.4570 14° North 286 329 7,800 -1,320 Descending FlightAware
09:44AM 35.2000 -82.4490 12° North 282 325 7,200 -1,440 Descending FlightAware
09:44AM 35.2430 -82.4590 349° North 271 312 6,400 -1,800 Descending FlightAware
09:45AM 35.2700 -82.4710 340° North 264 304 5,600 -1,920 Descending FlightAware
09:45AM 35.3000 -82.4830 342° North 238 274 4,700 -1,680 Descending FlightAware
09:46AM 35.3330 -82.4960 342° North 213 245 3,800 -900 Descending FlightAware
09:46AM 35.3550 -82.5050 342° North 213 245 3,800 5,820 Level FlightAware
09:47AM 35.4189 -82.5147 342° North 251 289 11,000 9,360 Climbing Atlanta Center
09:49AM 35.4333 -82.5333 North  Level FlightAware Approximate
09:56AM 35.4362 -82.5418 North  Level Estimated
09:57AM 35.4362 -82.5418 North  Level Estimated
09:58AM 35.4362 -82.5418 North  Level Estimated